createdAt,value
2022-09-11T00:02:29.599Z,101276.78
2022-09-11T00:05:42.622Z,101273.50
2022-09-11T00:09:01.822Z,101275.44
2022-09-11T00:12:07.349Z,101226.66
2022-09-11T00:15:12.544Z,101256.44
2022-09-11T00:18:22.620Z,101279.03
2022-09-11T00:21:28.580Z,101187.16
2022-09-11T00:24:33.627Z,101256.34
2022-09-11T00:27:38.369Z,101285.41
2022-09-11T00:30:45.911Z,101278.06
2022-09-11T00:33:52.682Z,101251.16
2022-09-11T00:36:58.969Z,101224.00
2022-09-11T00:40:04.426Z,101179.34
2022-09-11T00:43:11.792Z,101226.88
2022-09-11T00:46:17.105Z,101181.19
2022-09-11T00:49:31.497Z,101179.31
2022-09-11T00:52:42.081Z,101224.84
2022-09-11T00:55:53.317Z,101266.97
2022-09-11T00:58:59.841Z,101204.06
2022-09-11T01:02:04.838Z,101253.94
2022-09-11T01:05:11.287Z,101127.69
2022-09-11T01:08:16.163Z,101253.72
2022-09-11T01:11:41.413Z,101199.66
2022-09-11T01:14:58.034Z,101153.91
2022-09-11T01:18:30.374Z,101204.91
2022-09-11T01:22:03.258Z,101224.31
2022-09-11T01:25:25.106Z,101217.69
2022-09-11T01:28:40.939Z,101153.00
2022-09-11T01:32:25.848Z,101117.78
2022-09-11T01:35:48.678Z,101184.16
2022-09-11T01:38:58.479Z,101184.19
2022-09-11T01:42:15.703Z,101146.63
2022-09-11T01:45:23.062Z,101198.25
2022-09-11T01:48:34.869Z,101183.97
2022-09-11T01:51:42.226Z,101110.78
2022-09-11T01:55:00.657Z,101184.22
2022-09-11T01:58:21.247Z,101136.34
2022-09-11T02:01:32.142Z,101166.56
2022-09-11T02:05:02.899Z,101170.34
2022-09-11T02:08:20.056Z,101163.66
2022-09-11T02:11:26.420Z,101133.56
2022-09-11T02:14:51.831Z,101077.41
2022-09-11T02:18:12.630Z,101156.09
2022-09-11T02:21:17.149Z,101069.25
2022-09-11T02:24:26.441Z,101041.50
2022-09-11T02:27:34.697Z,101119.47
2022-09-11T02:30:43.908Z,101071.97
2022-09-11T02:33:50.539Z,101070.66
2022-09-11T02:37:04.224Z,101047.66
2022-09-11T02:40:28.036Z,101124.53
2022-09-11T02:43:56.954Z,101091.81
2022-09-11T02:47:24.995Z,101028.66
2022-09-11T02:50:50.412Z,101078.56
2022-09-11T02:54:33.258Z,101077.63
2022-09-11T02:57:46.835Z,101041.91
2022-09-11T03:00:52.022Z,100988.75
2022-09-11T03:03:56.553Z,101077.28
2022-09-11T03:07:01.278Z,101027.31
2022-09-11T03:10:09.382Z,101041.00
2022-09-11T03:13:15.793Z,100999.25
2022-09-11T03:16:22.386Z,101066.56
2022-09-11T03:19:28.455Z,101025.44
2022-09-11T03:22:33.374Z,101040.22
2022-09-11T03:25:38.236Z,101035.31
2022-09-11T03:28:44.692Z,100982.75
2022-09-11T03:31:53.771Z,100999.22
2022-09-11T03:34:58.855Z,101053.59
2022-09-11T03:38:03.421Z,101052.41
2022-09-11T03:41:10.138Z,100965.59
2022-09-11T03:44:15.295Z,101012.34
2022-09-11T03:47:21.420Z,101037.28
2022-09-11T03:50:26.308Z,101005.59
2022-09-11T03:53:33.365Z,101007.25
2022-09-11T03:56:38.354Z,100958.63
2022-09-11T03:59:43.746Z,100976.53
2022-09-11T04:02:48.971Z,100936.28
2022-09-11T04:06:07.567Z,100971.47
2022-09-11T04:09:14.005Z,101036.84
2022-09-11T04:12:19.437Z,101018.06
2022-09-11T04:15:24.416Z,100982.69
2022-09-11T04:18:29.364Z,101011.72
2022-09-11T04:21:35.755Z,101014.47
2022-09-11T04:24:41.154Z,100976.59
2022-09-11T04:27:46.409Z,101000.78
2022-09-11T04:30:53.489Z,100914.63
2022-09-11T04:33:58.940Z,100951.31
2022-09-11T04:37:08.733Z,100944.16
2022-09-11T04:40:14.373Z,100957.00
2022-09-11T04:43:21.253Z,100945.00
2022-09-11T04:46:26.559Z,100910.09
2022-09-11T04:49:32.318Z,100886.81
2022-09-11T04:52:37.320Z,100963.03
2022-09-11T04:55:44.766Z,100860.34
2022-09-11T04:59:01.115Z,100884.28
2022-09-11T05:02:07.012Z,100901.72
2022-09-11T05:05:16.108Z,100915.03
2022-09-11T05:08:21.089Z,100947.91
2022-09-11T05:11:26.952Z,100857.53
2022-09-11T05:14:33.675Z,100893.56
2022-09-11T05:17:40.417Z,100920.31
2022-09-11T05:20:47.703Z,100866.34
2022-09-11T05:23:54.973Z,100829.19
2022-09-11T05:27:02.766Z,100917.00
2022-09-11T05:30:08.627Z,100867.19
2022-09-11T05:33:14.763Z,100908.44
2022-09-11T05:36:20.110Z,100823.63
2022-09-11T05:39:26.240Z,100851.41
2022-09-11T05:42:32.209Z,100810.81
2022-09-11T05:45:43.407Z,100928.72
2022-09-11T05:48:49.338Z,100922.09
2022-09-11T05:51:54.276Z,100924.56
2022-09-11T05:54:59.281Z,100910.25
2022-09-11T05:58:04.677Z,100913.72
2022-09-11T06:01:13.073Z,100899.91
2022-09-11T06:04:20.378Z,100844.38
2022-09-11T06:07:28.735Z,100868.81
2022-09-11T06:10:33.770Z,100886.88
2022-09-11T06:13:44.206Z,100864.81
2022-09-11T06:16:50.861Z,100903.94
2022-09-11T06:19:56.970Z,100843.41
2022-09-11T06:23:06.078Z,100908.13
2022-09-11T06:26:18.546Z,100899.47
2022-09-11T06:29:24.279Z,100901.63
2022-09-11T06:32:29.120Z,100896.03
2022-09-11T06:35:34.353Z,100897.25
2022-09-11T06:38:39.619Z,100805.69
2022-09-11T06:41:48.286Z,100903.25
2022-09-11T06:44:53.232Z,100870.09
2022-09-11T06:47:57.848Z,100893.19
2022-09-11T06:51:05.552Z,100894.78
2022-09-11T06:54:12.439Z,100773.34
2022-09-11T06:57:17.596Z,100888.69
2022-09-11T07:00:22.259Z,100883.41
2022-09-11T07:03:27.488Z,100874.56
2022-09-11T07:06:32.384Z,100868.41
2022-09-11T07:09:42.289Z,100784.59
2022-09-11T07:12:49.235Z,100868.06
2022-09-11T07:16:01.187Z,100865.31
2022-09-11T07:19:06.663Z,100877.22
2022-09-11T07:23:03.336Z,100876.34
2022-09-11T07:26:12.128Z,100851.97
2022-09-11T07:29:17.589Z,100884.28
2022-09-11T07:32:23.889Z,100838.31
2022-09-11T07:35:31.008Z,100875.81
2022-09-11T07:38:43.943Z,100873.47
2022-09-11T07:41:54.248Z,100773.19
2022-09-11T07:45:12.367Z,100871.16
2022-09-11T07:48:23.869Z,100837.53
2022-09-11T07:51:30.465Z,100865.00
2022-09-11T07:54:40.424Z,100855.75
2022-09-11T07:57:46.619Z,100787.25
2022-09-11T08:01:00.307Z,100849.19
2022-09-11T08:04:12.847Z,100774.50
2022-09-11T08:07:18.761Z,100812.16
2022-09-11T08:10:27.596Z,100868.09
2022-09-11T08:13:35.579Z,100781.22
2022-09-11T08:16:40.466Z,100840.41
2022-09-11T08:19:46.371Z,100826.03
2022-09-11T08:22:51.680Z,100823.00
2022-09-11T08:25:59.923Z,100815.00
2022-09-11T08:29:06.223Z,100743.44
2022-09-11T08:32:11.393Z,100787.91
2022-09-11T08:35:17.942Z,100859.72
2022-09-11T08:38:22.927Z,100800.53
2022-09-11T08:41:54.502Z,100851.19
2022-09-11T08:45:02.226Z,100790.78
2022-09-11T08:48:15.003Z,100815.41
2022-09-11T08:51:20.984Z,100862.19
2022-09-11T08:54:37.529Z,100864.28
2022-09-11T08:58:14.984Z,100864.66
2022-09-11T09:01:28.213Z,100853.41
2022-09-11T09:05:00.283Z,100856.50
2022-09-11T09:08:20.372Z,100864.41
2022-09-11T09:11:46.717Z,100867.38
2022-09-11T09:15:19.419Z,100857.22
2022-09-11T09:18:39.204Z,100836.44
2022-09-11T09:22:12.909Z,100794.53
2022-09-11T09:25:24.927Z,100737.00
2022-09-11T09:28:45.318Z,100863.13
2022-09-11T09:31:59.333Z,100800.44
2022-09-11T09:35:12.034Z,100842.91
2022-09-11T09:38:27.150Z,100870.53
2022-09-11T09:41:42.165Z,100829.75
2022-09-11T09:45:27.436Z,100834.16
2022-09-11T09:48:40.729Z,100891.34
2022-09-11T09:51:48.194Z,100885.19
2022-09-11T09:55:02.284Z,100893.47
2022-09-11T09:58:13.280Z,100889.31
2022-09-11T10:01:46.130Z,100874.66
2022-09-11T10:05:09.676Z,100876.66
2022-09-11T10:08:45.422Z,100884.81
2022-09-11T10:12:14.883Z,100786.47
2022-09-11T10:15:24.600Z,100827.44
2022-09-11T10:18:39.375Z,100878.13
2022-09-11T10:21:45.166Z,100826.19
2022-09-11T10:25:11.699Z,100800.16
2022-09-11T10:28:20.269Z,100882.66
2022-09-11T10:31:31.970Z,100888.28
2022-09-11T10:34:42.144Z,100865.09
2022-09-11T10:37:46.910Z,100869.31
2022-09-11T10:41:08.529Z,100888.69
2022-09-11T10:44:17.546Z,100804.06
2022-09-11T10:47:32.856Z,100887.91
2022-09-11T10:50:37.894Z,100891.78
2022-09-11T10:54:00.504Z,100848.41
2022-09-11T10:57:26.210Z,100817.31
2022-09-11T11:00:33.017Z,100806.88
2022-09-11T11:03:37.797Z,100876.16
2022-09-11T11:06:59.103Z,100881.78
2022-09-11T11:10:33.274Z,100876.38
2022-09-11T11:14:08.260Z,100814.38
2022-09-11T11:17:46.796Z,100840.91
2022-09-11T11:21:11.417Z,100873.69
2022-09-11T11:24:25.089Z,100857.53
2022-09-11T11:28:14.180Z,100852.09
2022-09-11T11:31:29.268Z,100845.44
2022-09-11T11:35:05.849Z,100867.94
2022-09-11T11:38:32.526Z,100865.31
2022-09-11T11:41:45.998Z,100826.16
2022-09-11T11:45:21.849Z,100852.97
2022-09-11T11:48:28.886Z,100836.44
2022-09-11T11:51:49.136Z,100835.59
2022-09-11T11:55:05.109Z,100809.03
2022-09-11T11:58:15.560Z,100857.47
2022-09-11T12:01:37.410Z,100866.72
2022-09-11T12:05:11.407Z,100856.47
2022-09-11T12:08:17.631Z,100832.91
2022-09-11T12:11:31.386Z,100861.31
2022-09-11T12:14:36.259Z,100797.97
2022-09-11T12:17:44.253Z,100826.91
2022-09-11T12:20:48.742Z,100812.59
2022-09-11T12:24:05.389Z,100835.53
2022-09-11T12:27:35.335Z,100860.06
2022-09-11T13:57:25.478Z,100816.88
2022-09-11T15:52:53.178Z,100812.66
2022-09-11T21:41:12.253Z,100815.78
2022-09-11T22:21:04.136Z,100819.81
2022-09-11T22:24:09.007Z,100742.03
2022-09-11T22:27:14.200Z,100710.59
2022-09-11T22:30:19.361Z,100783.47
2022-09-11T22:33:24.325Z,100776.78
2022-09-11T22:36:31.212Z,100766.22
2022-09-11T22:39:35.948Z,100820.41
2022-09-11T22:42:41.093Z,100739.88
2022-09-11T22:45:52.717Z,100788.84
2022-09-11T22:48:57.916Z,100783.19
2022-09-11T22:52:03.007Z,100835.91
2022-09-11T22:55:09.077Z,100769.41
2022-09-11T22:58:15.342Z,100828.28
2022-09-11T23:01:22.509Z,100819.16
2022-09-11T23:04:27.332Z,100750.91
2022-09-11T23:07:32.362Z,100765.16
2022-09-11T23:10:45.224Z,100684.97
2022-09-11T23:13:51.556Z,100689.47
2022-09-11T23:16:56.376Z,100809.91
2022-09-11T23:20:00.860Z,100698.94
2022-09-11T23:23:07.794Z,100781.97
2022-09-11T23:26:15.506Z,100771.69
2022-09-11T23:29:20.584Z,100711.56
2022-09-11T23:32:25.368Z,100767.78
2022-09-11T23:35:30.745Z,100738.13
2022-09-11T23:38:35.364Z,100799.16
2022-09-11T23:41:40.400Z,100804.88
2022-09-11T23:44:45.386Z,100693.19
2022-09-11T23:47:51.763Z,100814.13
2022-09-11T23:50:59.030Z,100778.78
2022-09-11T23:54:03.885Z,100806.00
2022-09-11T23:57:08.577Z,100763.41
